createdAt,value
2023-04-13T00:00:03.076Z,0
2023-04-13T00:15:02.505Z,0
2023-04-13T00:30:02.965Z,0
2023-04-13T00:45:02.387Z,0
2023-04-13T01:00:02.967Z,0
2023-04-13T01:15:02.271Z,0
2023-04-13T01:30:02.687Z,0
2023-04-13T01:45:03.128Z,0
2023-04-13T02:00:02.560Z,0
2023-04-13T02:15:03.055Z,0
2023-04-13T02:30:02.441Z,0
2023-04-13T02:45:02.952Z,0
2023-04-13T03:00:02.334Z,0
2023-04-13T03:15:02.959Z,0
2023-04-13T03:30:02.273Z,0
2023-04-13T03:45:02.658Z,0
2023-04-13T04:00:03.089Z,0
2023-04-13T04:15:02.526Z,0
2023-04-13T04:30:02.984Z,0
2023-04-13T04:45:02.398Z,0
2023-04-13T05:00:02.959Z,0
2023-04-13T05:15:02.380Z,4
2023-04-13T05:30:02.752Z,6
2023-04-13T05:45:03.174Z,3
2023-04-13T06:00:02.577Z,5
2023-04-13T06:15:03.063Z,46
2023-04-13T06:30:02.444Z,89
2023-04-13T06:45:03.012Z,44
2023-04-13T07:00:02.396Z,162
2023-04-13T07:15:03.006Z,146
2023-04-13T07:30:02.297Z,118
2023-04-13T07:45:02.659Z,182
2023-04-13T08:00:03.081Z,154
2023-04-13T08:15:02.531Z,141
2023-04-13T08:30:03.030Z,514
2023-04-13T08:45:02.386Z,343
2023-04-13T09:00:03.063Z,140
2023-04-13T09:15:02.247Z,134
2023-04-13T09:30:02.716Z,126
2023-04-13T09:45:03.172Z,263
2023-04-13T10:00:02.649Z,189
2023-04-13T10:15:03.061Z,80
2023-04-13T10:30:02.494Z,188
2023-04-13T10:45:03.055Z,93
2023-04-13T11:00:02.404Z,419
2023-04-13T11:15:03.054Z,258
2023-04-13T11:30:02.308Z,211
2023-04-13T11:45:02.720Z,258
2023-04-13T12:00:03.164Z,306
2023-04-13T12:30:03.073Z,766
2023-04-13T12:45:02.428Z,260
2023-04-13T13:00:03.099Z,649
2023-04-13T13:15:02.303Z,329
2023-04-13T13:30:02.774Z,563
2023-04-13T13:45:03.265Z,595
2023-04-13T14:00:02.756Z,533
2023-04-13T14:15:03.102Z,230
2023-04-13T14:30:02.474Z,234
2023-04-13T14:45:03.082Z,358
2023-04-13T15:00:02.466Z,404
2023-04-13T15:15:03.031Z,428
2023-04-13T15:30:02.330Z,377
2023-04-13T15:45:02.713Z,342
2023-04-13T16:00:03.145Z,320
2023-04-13T16:15:02.565Z,289
2023-04-13T16:30:03.113Z,244
2023-04-13T16:45:02.469Z,54
2023-04-13T17:00:03.157Z,122
2023-04-13T17:15:02.352Z,46
2023-04-13T17:30:02.846Z,54
2023-04-13T17:45:02.285Z,23
2023-04-13T18:00:02.710Z,11
2023-04-13T18:15:03.159Z,0
2023-04-13T18:30:02.574Z,0
2023-04-13T18:45:03.113Z,0
2023-04-13T19:00:02.455Z,0
2023-04-13T19:15:03.138Z,0
2023-04-13T19:30:02.408Z,0
2023-04-13T19:45:02.805Z,0
2023-04-13T20:00:03.243Z,0
2023-04-13T20:15:02.659Z,0
2023-04-13T20:30:03.140Z,0
2023-04-13T20:45:02.537Z,0
2023-04-13T21:00:03.152Z,0
2023-04-13T21:15:02.451Z,0
2023-04-13T21:30:02.893Z,0
2023-04-13T21:45:02.312Z,0
2023-04-13T22:00:05.043Z,0
2023-04-13T22:15:03.179Z,0
2023-04-13T22:30:02.619Z,0
2023-04-13T22:45:03.186Z,0
2023-04-13T23:00:02.508Z,0
2023-04-13T23:15:03.124Z,0
2023-04-13T23:30:02.381Z,0
2023-04-13T23:45:02.802Z,0
